Dalwhinnie, United Kingdom
Current Conditions -  °F | °C
As of 4:20 AM on Wednesday 28 Jan 2015 (Local Time) from EGPE Reporting Station
Moderate Rain Moderate Rain  
Wind Chill: 38°   Ceiling: 1900
Heat Index: 45°   Visibility: 4mi
Dew Point: 41°   Wind: 13mph
Humidity: 87%   Direction: 250°WSW
Pressure: 29.18"   Gusts: 24mph
Location:  56.94°N, 4.24°W
Report Text: EGPE 280420Z AUTO 25011G21KT 200V270 6000 RA BKN019/// 07/05 Q0988
Loading
Personal Weather Stations






























Interactive Weather Map New forecast layout! Learn more

10-Day Weather Forecast

Advertisements
Track Severe Weather on mobile